sensor_id;sensor_type;location;lat;lon;timestamp;temperature;humidity
23116;DHT22;11727;52.134;5.052;2022-12-10T00:01:21;0.00;99.90
23116;DHT22;11727;52.134;5.052;2022-12-10T00:03:47;0.00;99.90
23116;DHT22;11727;52.134;5.052;2022-12-10T00:06:15;-0.10;99.90
23116;DHT22;11727;52.134;5.052;2022-12-10T00:08:41;-0.10;99.90
23116;DHT22;11727;52.134;5.052;2022-12-10T00:11:10;-0.20;99.90
23116;DHT22;11727;52.134;5.052;2022-12-10T00:13:37;-0.20;99.90
23116;DHT22;11727;52.134;5.052;2022-12-10T00:16:05;-0.30;99.90
23116;DHT22;11727;52.134;5.052;2022-12-10T00:18:31;-0.30;99.90
23116;DHT22;11727;52.134;5.052;2022-12-10T00:20:57;-0.30;99.90
23116;DHT22;11727;52.134;5.052;2022-12-10T00:23:23;-0.40;99.90
23116;DHT22;11727;52.134;5.052;2022-12-10T00:25:48;-0.40;99.90
23116;DHT22;11727;52.134;5.052;2022-12-10T00:28:14;-0.40;99.90
23116;DHT22;11727;52.134;5.052;2022-12-10T00:30:39;-0.40;99.90
23116;DHT22;11727;52.134;5.052;2022-12-10T00:33:05;-0.40;99.90
23116;DHT22;11727;52.134;5.052;2022-12-10T00:35:31;-0.40;99.90
23116;DHT22;11727;52.134;5.052;2022-12-10T00:37:56;-0.50;99.90
23116;DHT22;11727;52.134;5.052;2022-12-10T00:40:23;-0.50;99.90
23116;DHT22;11727;52.134;5.052;2022-12-10T00:42:48;-0.50;99.90
23116;DHT22;11727;52.134;5.052;2022-12-10T00:45:14;-0.50;99.90
23116;DHT22;11727;52.134;5.052;2022-12-10T00:47:39;-0.50;99.90
23116;DHT22;11727;52.134;5.052;2022-12-10T00:50:05;-0.50;99.90
23116;DHT22;11727;52.134;5.052;2022-12-10T00:52:31;-0.50;99.90
23116;DHT22;11727;52.134;5.052;2022-12-10T00:54:56;-0.60;99.90
23116;DHT22;11727;52.134;5.052;2022-12-10T00:57:22;-0.50;99.90
23116;DHT22;11727;52.134;5.052;2022-12-10T00:59:47;-0.60;99.90
23116;DHT22;11727;52.134;5.052;2022-12-10T01:02:13;-0.60;99.90
23116;DHT22;11727;52.134;5.052;2022-12-10T01:04:38;-0.60;99.90
23116;DHT22;11727;52.134;5.052;2022-12-10T01:07:04;-0.60;99.90
23116;DHT22;11727;52.134;5.052;2022-12-10T01:09:30;-0.50;99.90
23116;DHT22;11727;52.134;5.052;2022-12-10T01:11:57;-0.50;99.90
23116;DHT22;11727;52.134;5.052;2022-12-10T01:14:28;-0.50;99.90
23116;DHT22;11727;52.134;5.052;2022-12-10T01:16:56;-0.50;99.90
23116;DHT22;11727;52.134;5.052;2022-12-10T01:19:22;-0.50;99.90
23116;DHT22;11727;52.134;5.052;2022-12-10T01:21:52;-0.50;99.90
23116;DHT22;11727;52.134;5.052;2022-12-10T01:24:19;-0.50;99.90
23116;DHT22;11727;52.134;5.052;2022-12-10T01:26:44;-0.50;99.90
23116;DHT22;11727;52.134;5.052;2022-12-10T01:29:11;-0.50;99.90
23116;DHT22;11727;52.134;5.052;2022-12-10T01:31:37;-0.50;99.90
23116;DHT22;11727;52.134;5.052;2022-12-10T01:34:05;-0.50;99.90
23116;DHT22;11727;52.134;5.052;2022-12-10T01:36:52;-0.60;99.90
23116;DHT22;11727;52.134;5.052;2022-12-10T01:39:18;-0.50;99.90
23116;DHT22;11727;52.134;5.052;2022-12-10T01:46:42;-0.50;99.90
23116;DHT22;11727;52.134;5.052;2022-12-10T01:49:11;-0.50;99.90
23116;DHT22;11727;52.134;5.052;2022-12-10T01:51:39;-0.50;99.90
23116;DHT22;11727;52.134;5.052;2022-12-10T01:54:07;-0.50;99.90
23116;DHT22;11727;52.134;5.052;2022-12-10T01:56:38;-0.40;99.90
23116;DHT22;11727;52.134;5.052;2022-12-10T01:59:06;-0.40;99.90
23116;DHT22;11727;52.134;5.052;2022-12-10T02:07:02;-0.40;99.90
23116;DHT22;11727;52.134;5.052;2022-12-10T02:09:52;-0.40;99.90
23116;DHT22;11727;52.134;5.052;2022-12-10T02:15:17;-0.40;99.90
23116;DHT22;11727;52.134;5.052;2022-12-10T02:17:54;-0.30;99.90
23116;DHT22;11727;52.134;5.052;2022-12-10T02:20:32;-0.30;99.90
23116;DHT22;11727;52.134;5.052;2022-12-10T02:25:36;-0.30;99.90
23116;DHT22;11727;52.134;5.052;2022-12-10T02:30:44;-0.20;99.90
23116;DHT22;11727;52.134;5.052;2022-12-10T02:33:12;-0.20;99.90
23116;DHT22;11727;52.134;5.052;2022-12-10T02:35:38;-0.20;99.90
23116;DHT22;11727;52.134;5.052;2022-12-10T02:38:16;-0.20;99.90
23116;DHT22;11727;52.134;5.052;2022-12-10T02:40:48;-0.20;99.90
23116;DHT22;11727;52.134;5.052;2022-12-10T02:43:15;-0.20;99.90
23116;DHT22;11727;52.134;5.052;2022-12-10T02:45:42;-0.20;99.90
23116;DHT22;11727;52.134;5.052;2022-12-10T02:48:09;-0.20;99.90
23116;DHT22;11727;52.134;5.052;2022-12-10T02:50:36;-0.10;99.90
23116;DHT22;11727;52.134;5.052;2022-12-10T02:53:02;-0.20;99.90
23116;DHT22;11727;52.134;5.052;2022-12-10T02:55:36;-0.10;99.90
23116;DHT22;11727;52.134;5.052;2022-12-10T03:00:58;-0.10;99.90
23116;DHT22;11727;52.134;5.052;2022-12-10T03:03:36;0.00;99.90
23116;DHT22;11727;52.134;5.052;2022-12-10T03:06:05;0.00;99.90
23116;DHT22;11727;52.134;5.052;2022-12-10T03:08:52;0.00;99.90
23116;DHT22;11727;52.134;5.052;2022-12-10T03:11:22;0.00;99.90
23116;DHT22;11727;52.134;5.052;2022-12-10T03:14:02;0.00;99.90
23116;DHT22;11727;52.134;5.052;2022-12-10T03:16:35;0.00;99.90
23116;DHT22;11727;52.134;5.052;2022-12-10T03:19:05;0.00;99.90
23116;DHT22;11727;52.134;5.052;2022-12-10T03:21:32;0.00;99.90
23116;DHT22;11727;52.134;5.052;2022-12-10T03:24:00;0.00;99.90
23116;DHT22;11727;52.134;5.052;2022-12-10T03:26:26;-0.10;99.90
23116;DHT22;11727;52.134;5.052;2022-12-10T03:29:01;-0.10;99.90
23116;DHT22;11727;52.134;5.052;2022-12-10T03:31:30;-0.20;99.90
23116;DHT22;11727;52.134;5.052;2022-12-10T03:33:56;-0.10;99.90
23116;DHT22;11727;52.134;5.052;2022-12-10T03:36:22;-0.10;99.90
23116;DHT22;11727;52.134;5.052;2022-12-10T03:38:48;-0.10;99.90
23116;DHT22;11727;52.134;5.052;2022-12-10T03:41:14;-0.10;99.90
23116;DHT22;11727;52.134;5.052;2022-12-10T03:43:59;-0.10;99.90
23116;DHT22;11727;52.134;5.052;2022-12-10T03:46:28;-0.20;99.90
23116;DHT22;11727;52.134;5.052;2022-12-10T03:48:54;-0.20;99.90
23116;DHT22;11727;52.134;5.052;2022-12-10T03:51:21;-0.20;99.90
23116;DHT22;11727;52.134;5.052;2022-12-10T03:53:47;-0.20;99.90
23116;DHT22;11727;52.134;5.052;2022-12-10T03:56:15;-0.20;99.90
23116;DHT22;11727;52.134;5.052;2022-12-10T03:58:40;-0.30;99.90
23116;DHT22;11727;52.134;5.052;2022-12-10T04:01:06;-0.40;99.90
23116;DHT22;11727;52.134;5.052;2022-12-10T04:03:35;-0.40;99.90
23116;DHT22;11727;52.134;5.052;2022-12-10T04:06:11;-0.40;99.90
23116;DHT22;11727;52.134;5.052;2022-12-10T04:08:37;-0.40;99.90
23116;DHT22;11727;52.134;5.052;2022-12-10T04:11:08;-0.40;99.90
23116;DHT22;11727;52.134;5.052;2022-12-10T04:13:35;-0.40;99.90
23116;DHT22;11727;52.134;5.052;2022-12-10T04:16:19;-0.40;99.90
23116;DHT22;11727;52.134;5.052;2022-12-10T04:19:02;-0.40;99.90
23116;DHT22;11727;52.134;5.052;2022-12-10T04:21:29;-0.40;99.90
23116;DHT22;11727;52.134;5.052;2022-12-10T04:24:15;-0.40;99.90
23116;DHT22;11727;52.134;5.052;2022-12-10T04:27:03;-0.40;99.90
23116;DHT22;11727;52.134;5.052;2022-12-10T04:29:30;-0.40;99.90
23116;DHT22;11727;52.134;5.052;2022-12-10T04:31:56;-0.40;99.90
23116;DHT22;11727;52.134;5.052;2022-12-10T04:34:23;-0.40;99.90
23116;DHT22;11727;52.134;5.052;2022-12-10T04:36:49;-0.40;99.90
23116;DHT22;11727;52.134;5.052;2022-12-10T04:39:16;-0.40;99.90
23116;DHT22;11727;52.134;5.052;2022-12-10T04:41:43;-0.40;99.90
23116;DHT22;11727;52.134;5.052;2022-12-10T04:44:09;-0.30;99.90
23116;DHT22;11727;52.134;5.052;2022-12-10T04:46:35;-0.30;99.90
23116;DHT22;11727;52.134;5.052;2022-12-10T04:49:02;-0.30;99.90
23116;DHT22;11727;52.134;5.052;2022-12-10T04:51:27;-0.40;99.90
23116;DHT22;11727;52.134;5.052;2022-12-10T04:53:53;-0.40;99.90
23116;DHT22;11727;52.134;5.052;2022-12-10T04:56:19;-0.40;99.90
23116;DHT22;11727;52.134;5.052;2022-12-10T04:58:45;-0.50;99.90
23116;DHT22;11727;52.134;5.052;2022-12-10T05:01:14;-0.50;99.90
23116;DHT22;11727;52.134;5.052;2022-12-10T05:03:40;-0.50;99.90
23116;DHT22;11727;52.134;5.052;2022-12-10T05:06:09;-0.50;99.90
23116;DHT22;11727;52.134;5.052;2022-12-10T05:08:36;-0.50;99.90
23116;DHT22;11727;52.134;5.052;2022-12-10T05:11:04;-0.50;99.90
23116;DHT22;11727;52.134;5.052;2022-12-10T05:13:30;-0.60;99.90
23116;DHT22;11727;52.134;5.052;2022-12-10T05:15:56;-0.60;99.90
23116;DHT22;11727;52.134;5.052;2022-12-10T05:18:22;-0.60;99.90
23116;DHT22;11727;52.134;5.052;2022-12-10T05:20:47;-0.60;99.90
23116;DHT22;11727;52.134;5.052;2022-12-10T05:23:13;-0.60;99.90
23116;DHT22;11727;52.134;5.052;2022-12-10T05:26:06;-0.60;99.90
23116;DHT22;11727;52.134;5.052;2022-12-10T05:28:38;-0.60;99.90
23116;DHT22;11727;52.134;5.052;2022-12-10T05:31:04;-0.60;99.90
23116;DHT22;11727;52.134;5.052;2022-12-10T05:33:31;-0.60;99.90
23116;DHT22;11727;52.134;5.052;2022-12-10T05:35:59;-0.60;99.90
23116;DHT22;11727;52.134;5.052;2022-12-10T05:38:26;-0.60;99.90
23116;DHT22;11727;52.134;5.052;2022-12-10T05:40:52;-0.60;99.90
23116;DHT22;11727;52.134;5.052;2022-12-10T05:43:17;-0.60;99.90
23116;DHT22;11727;52.134;5.052;2022-12-10T05:45:43;-0.70;99.90
23116;DHT22;11727;52.134;5.052;2022-12-10T05:48:10;-0.60;99.90
23116;DHT22;11727;52.134;5.052;2022-12-10T05:50:36;-0.60;99.90
23116;DHT22;11727;52.134;5.052;2022-12-10T05:53:01;-0.60;99.90
23116;DHT22;11727;52.134;5.052;2022-12-10T05:55:27;-0.60;99.90
23116;DHT22;11727;52.134;5.052;2022-12-10T05:57:54;-0.60;99.90
23116;DHT22;11727;52.134;5.052;2022-12-10T06:00:20;-0.60;99.90
23116;DHT22;11727;52.134;5.052;2022-12-10T06:02:49;-0.50;99.90
23116;DHT22;11727;52.134;5.052;2022-12-10T06:05:14;-0.50;99.90
23116;DHT22;11727;52.134;5.052;2022-12-10T06:07:40;-0.50;99.90
23116;DHT22;11727;52.134;5.052;2022-12-10T06:10:09;-0.50;99.90
23116;DHT22;11727;52.134;5.052;2022-12-10T06:12:35;-0.50;99.90
23116;DHT22;11727;52.134;5.052;2022-12-10T06:15:00;-0.60;99.90
23116;DHT22;11727;52.134;5.052;2022-12-10T06:17:26;-0.60;99.90
23116;DHT22;11727;52.134;5.052;2022-12-10T06:19:54;-0.50;99.90
23116;DHT22;11727;52.134;5.052;2022-12-10T06:22:20;-0.60;99.90
23116;DHT22;11727;52.134;5.052;2022-12-10T06:24:45;-0.50;99.90
23116;DHT22;11727;52.134;5.052;2022-12-10T06:27:14;-0.60;99.90
23116;DHT22;11727;52.134;5.052;2022-12-10T06:29:40;-0.60;99.90
23116;DHT22;11727;52.134;5.052;2022-12-10T06:32:05;-0.60;99.90
23116;DHT22;11727;52.134;5.052;2022-12-10T06:34:31;-0.70;99.90
23116;DHT22;11727;52.134;5.052;2022-12-10T06:36:57;-0.60;99.90
23116;DHT22;11727;52.134;5.052;2022-12-10T06:39:22;-0.70;99.90
23116;DHT22;11727;52.134;5.052;2022-12-10T06:41:48;-0.60;99.90
23116;DHT22;11727;52.134;5.052;2022-12-10T06:44:14;-0.60;99.90
23116;DHT22;11727;52.134;5.052;2022-12-10T06:46:40;-0.60;99.90
23116;DHT22;11727;52.134;5.052;2022-12-10T06:49:06;-0.60;99.90
23116;DHT22;11727;52.134;5.052;2022-12-10T06:51:32;-0.60;99.90
23116;DHT22;11727;52.134;5.052;2022-12-10T06:53:58;-0.60;99.90
23116;DHT22;11727;52.134;5.052;2022-12-10T06:56:23;-0.60;99.90
23116;DHT22;11727;52.134;5.052;2022-12-10T06:58:49;-0.50;99.90
23116;DHT22;11727;52.134;5.052;2022-12-10T07:01:21;-0.50;99.90
23116;DHT22;11727;52.134;5.052;2022-12-10T07:03:55;-0.60;99.90
23116;DHT22;11727;52.134;5.052;2022-12-10T07:06:21;-0.60;99.90
23116;DHT22;11727;52.134;5.052;2022-12-10T07:08:47;-0.60;99.90
23116;DHT22;11727;52.134;5.052;2022-12-10T07:11:15;-0.50;99.90
23116;DHT22;11727;52.134;5.052;2022-12-10T07:13:41;-0.60;99.90
23116;DHT22;11727;52.134;5.052;2022-12-10T07:16:15;-0.60;99.90
23116;DHT22;11727;52.134;5.052;2022-12-10T07:18:42;-0.60;99.90
23116;DHT22;11727;52.134;5.052;2022-12-10T07:23:46;-0.60;99.90
23116;DHT22;11727;52.134;5.052;2022-12-10T07:26:12;-0.50;99.90
23116;DHT22;11727;52.134;5.052;2022-12-10T07:28:38;-0.50;99.90
23116;DHT22;11727;52.134;5.052;2022-12-10T07:31:05;-0.60;99.90
23116;DHT22;11727;52.134;5.052;2022-12-10T07:33:31;-0.60;99.90
23116;DHT22;11727;52.134;5.052;2022-12-10T07:35:58;-0.60;99.90
23116;DHT22;11727;52.134;5.052;2022-12-10T07:38:24;-0.60;99.90
23116;DHT22;11727;52.134;5.052;2022-12-10T07:40:51;-0.70;99.90
23116;DHT22;11727;52.134;5.052;2022-12-10T07:43:17;-0.60;99.90
23116;DHT22;11727;52.134;5.052;2022-12-10T07:45:43;-0.60;99.90
23116;DHT22;11727;52.134;5.052;2022-12-10T07:48:09;-0.60;99.90
23116;DHT22;11727;52.134;5.052;2022-12-10T07:50:34;-0.60;99.90
23116;DHT22;11727;52.134;5.052;2022-12-10T07:53:00;-0.60;99.90
23116;DHT22;11727;52.134;5.052;2022-12-10T07:55:26;-0.50;99.90
23116;DHT22;11727;52.134;5.052;2022-12-10T07:57:51;-0.60;99.90
23116;DHT22;11727;52.134;5.052;2022-12-10T08:00:17;-0.60;99.90
23116;DHT22;11727;52.134;5.052;2022-12-10T08:02:43;-0.60;99.90
23116;DHT22;11727;52.134;5.052;2022-12-10T08:05:08;-0.50;99.90
23116;DHT22;11727;52.134;5.052;2022-12-10T08:07:34;-0.50;99.90
23116;DHT22;11727;52.134;5.052;2022-12-10T08:10:00;-0.50;99.90
23116;DHT22;11727;52.134;5.052;2022-12-10T08:12:25;-0.50;99.90
23116;DHT22;11727;52.134;5.052;2022-12-10T08:14:51;-0.50;99.90
23116;DHT22;11727;52.134;5.052;2022-12-10T08:17:16;-0.50;99.90
23116;DHT22;11727;52.134;5.052;2022-12-10T08:19:42;-0.50;99.90
23116;DHT22;11727;52.134;5.052;2022-12-10T08:22:08;-0.40;99.90
23116;DHT22;11727;52.134;5.052;2022-12-10T08:24:33;-0.40;99.90
23116;DHT22;11727;52.134;5.052;2022-12-10T08:26:59;-0.50;99.90
23116;DHT22;11727;52.134;5.052;2022-12-10T08:29:24;-0.40;99.90
23116;DHT22;11727;52.134;5.052;2022-12-10T08:31:50;-0.50;99.90
23116;DHT22;11727;52.134;5.052;2022-12-10T08:34:17;-0.50;99.90
23116;DHT22;11727;52.134;5.052;2022-12-10T08:36:44;-0.40;99.90
23116;DHT22;11727;52.134;5.052;2022-12-10T08:39:10;-0.40;99.90
23116;DHT22;11727;52.134;5.052;2022-12-10T08:41:40;-0.40;99.90
23116;DHT22;11727;52.134;5.052;2022-12-10T08:44:06;-0.30;99.90
23116;DHT22;11727;52.134;5.052;2022-12-10T08:46:31;-0.40;99.90
23116;DHT22;11727;52.134;5.052;2022-12-10T08:48:57;-0.30;99.90
23116;DHT22;11727;52.134;5.052;2022-12-10T08:51:23;-0.30;99.90
23116;DHT22;11727;52.134;5.052;2022-12-10T08:53:48;-0.30;99.90
23116;DHT22;11727;52.134;5.052;2022-12-10T08:56:14;-0.40;99.90
23116;DHT22;11727;52.134;5.052;2022-12-10T08:58:40;-0.40;99.90
23116;DHT22;11727;52.134;5.052;2022-12-10T09:01:12;-0.40;99.90
23116;DHT22;11727;52.134;5.052;2022-12-10T09:03:38;-0.50;99.90
23116;DHT22;11727;52.134;5.052;2022-12-10T09:06:06;-0.50;99.90
23116;DHT22;11727;52.134;5.052;2022-12-10T09:08:32;-0.60;99.90
23116;DHT22;11727;52.134;5.052;2022-12-10T09:10:58;-0.50;99.90
23116;DHT22;11727;52.134;5.052;2022-12-10T09:13:29;-0.60;99.90
23116;DHT22;11727;52.134;5.052;2022-12-10T09:15:54;-0.60;99.90
23116;DHT22;11727;52.134;5.052;2022-12-10T09:18:20;-0.60;99.90
23116;DHT22;11727;52.134;5.052;2022-12-10T09:20:45;-0.60;99.90
23116;DHT22;11727;52.134;5.052;2022-12-10T09:23:11;-0.60;99.90
23116;DHT22;11727;52.134;5.052;2022-12-10T09:25:37;-0.60;99.90
23116;DHT22;11727;52.134;5.052;2022-12-10T09:28:02;-0.50;99.90
23116;DHT22;11727;52.134;5.052;2022-12-10T09:30:28;-0.50;99.90
23116;DHT22;11727;52.134;5.052;2022-12-10T09:32:53;-0.50;99.90
23116;DHT22;11727;52.134;5.052;2022-12-10T09:35:19;-0.50;99.90
23116;DHT22;11727;52.134;5.052;2022-12-10T09:37:44;-0.50;99.90
23116;DHT22;11727;52.134;5.052;2022-12-10T09:40:35;-0.40;99.90
23116;DHT22;11727;52.134;5.052;2022-12-10T09:46:01;-0.50;99.90
23116;DHT22;11727;52.134;5.052;2022-12-10T09:51:23;-0.30;99.90
23116;DHT22;11727;52.134;5.052;2022-12-10T09:53:51;-0.30;99.90
23116;DHT22;11727;52.134;5.052;2022-12-10T09:56:31;-0.30;99.90
23116;DHT22;11727;52.134;5.052;2022-12-10T09:59:01;-0.20;99.90
23116;DHT22;11727;52.134;5.052;2022-12-10T10:01:29;-0.20;99.90
23116;DHT22;11727;52.134;5.052;2022-12-10T10:03:56;-0.20;99.90
23116;DHT22;11727;52.134;5.052;2022-12-10T10:06:23;-0.20;99.90
23116;DHT22;11727;52.134;5.052;2022-12-10T10:08:53;-0.10;99.90
23116;DHT22;11727;52.134;5.052;2022-12-10T10:11:23;-0.10;99.90
23116;DHT22;11727;52.134;5.052;2022-12-10T10:13:53;-0.10;99.90
23116;DHT22;11727;52.134;5.052;2022-12-10T10:16:47;-0.10;99.90
23116;DHT22;11727;52.134;5.052;2022-12-10T10:19:37;-0.10;99.90
23116;DHT22;11727;52.134;5.052;2022-12-10T10:22:05;-0.20;99.90
23116;DHT22;11727;52.134;5.052;2022-12-10T10:24:36;-0.20;99.90
23116;DHT22;11727;52.134;5.052;2022-12-10T10:29:44;-0.20;99.90
23116;DHT22;11727;52.134;5.052;2022-12-10T10:32:21;-0.20;99.90
23116;DHT22;11727;52.134;5.052;2022-12-10T10:34:52;-0.20;99.90
23116;DHT22;11727;52.134;5.052;2022-12-10T10:37:45;-0.10;99.90
23116;DHT22;11727;52.134;5.052;2022-12-10T10:40:32;-0.10;99.90
23116;DHT22;11727;52.134;5.052;2022-12-10T10:42:58;0.00;99.90
23116;DHT22;11727;52.134;5.052;2022-12-10T10:45:34;-0.10;99.90
23116;DHT22;11727;52.134;5.052;2022-12-10T10:48:10;-0.10;99.90
23116;DHT22;11727;52.134;5.052;2022-12-10T10:50:43;-0.10;99.90
23116;DHT22;11727;52.134;5.052;2022-12-10T10:55:52;-0.20;99.90
23116;DHT22;11727;52.134;5.052;2022-12-10T10:58:20;-0.10;99.90
23116;DHT22;11727;52.134;5.052;2022-12-10T11:01:04;-0.10;99.90
23116;DHT22;11727;52.134;5.052;2022-12-10T11:03:32;-0.10;99.90
23116;DHT22;11727;52.134;5.052;2022-12-10T11:05:59;-0.10;99.90
23116;DHT22;11727;52.134;5.052;2022-12-10T11:08:28;-0.20;99.90
23116;DHT22;11727;52.134;5.052;2022-12-10T11:11:12;-0.10;99.90
23116;DHT22;11727;52.134;5.052;2022-12-10T11:13:42;-0.10;99.90
23116;DHT22;11727;52.134;5.052;2022-12-10T11:16:23;0.00;99.90
23116;DHT22;11727;52.134;5.052;2022-12-10T11:19:02;0.00;99.90
23116;DHT22;11727;52.134;5.052;2022-12-10T11:21:31;0.00;99.90
23116;DHT22;11727;52.134;5.052;2022-12-10T11:23:59;0.00;99.90
23116;DHT22;11727;52.134;5.052;2022-12-10T11:40:27;-0.10;99.90
23116;DHT22;11727;52.134;5.052;2022-12-10T11:46:01;-0.10;99.90
23116;DHT22;11727;52.134;5.052;2022-12-10T11:49:01;-0.10;99.90
23116;DHT22;11727;52.134;5.052;2022-12-10T11:58:01;-0.10;99.90
23116;DHT22;11727;52.134;5.052;2022-12-10T12:00:41;-0.10;99.90
23116;DHT22;11727;52.134;5.052;2022-12-10T12:14:29;-0.10;99.90
23116;DHT22;11727;52.134;5.052;2022-12-10T12:17:04;-0.10;99.90
23116;DHT22;11727;52.134;5.052;2022-12-10T12:19:43;-0.10;99.90
23116;DHT22;11727;52.134;5.052;2022-12-10T12:22:37;-0.10;99.90
23116;DHT22;11727;52.134;5.052;2022-12-10T12:27:49;-0.10;99.90
23116;DHT22;11727;52.134;5.052;2022-12-10T12:30:18;-0.10;99.90
23116;DHT22;11727;52.134;5.052;2022-12-10T12:33:13;-0.10;99.90
23116;DHT22;11727;52.134;5.052;2022-12-10T12:41:26;0.00;99.90
23116;DHT22;11727;52.134;5.052;2022-12-10T12:46:44;0.00;99.90
23116;DHT22;11727;52.134;5.052;2022-12-10T12:49:30;0.10;99.90
23116;DHT22;11727;52.134;5.052;2022-12-10T12:54:44;0.00;99.90
23116;DHT22;11727;52.134;5.052;2022-12-10T13:00:10;0.00;99.90
23116;DHT22;11727;52.134;5.052;2022-12-10T13:03:00;0.10;99.90
23116;DHT22;11727;52.134;5.052;2022-12-10T13:05:35;0.10;99.90
23116;DHT22;11727;52.134;5.052;2022-12-10T13:10:53;0.10;99.90
23116;DHT22;11727;52.134;5.052;2022-12-10T13:13:31;0.10;99.90
23116;DHT22;11727;52.134;5.052;2022-12-10T13:30:00;0.00;99.90
23116;DHT22;11727;52.134;5.052;2022-12-10T13:42:44;0.00;99.90
23116;DHT22;11727;52.134;5.052;2022-12-10T13:45:31;0.10;99.90
23116;DHT22;11727;52.134;5.052;2022-12-10T13:48:30;0.00;99.90
23116;DHT22;11727;52.134;5.052;2022-12-10T13:56:55;-0.10;99.90
23116;DHT22;11727;52.134;5.052;2022-12-10T13:59:42;0.00;99.90
23116;DHT22;11727;52.134;5.052;2022-12-10T14:02:41;0.00;99.90
23116;DHT22;11727;52.134;5.052;2022-12-10T14:05:38;0.00;99.90
23116;DHT22;11727;52.134;5.052;2022-12-10T14:08:15;0.00;99.90
23116;DHT22;11727;52.134;5.052;2022-12-10T14:10:42;0.00;99.90
23116;DHT22;11727;52.134;5.052;2022-12-10T14:13:11;0.00;99.90
23116;DHT22;11727;52.134;5.052;2022-12-10T14:15:38;0.00;99.90
23116;DHT22;11727;52.134;5.052;2022-12-10T14:18:13;0.00;99.90
23116;DHT22;11727;52.134;5.052;2022-12-10T14:20:46;0.00;99.90
23116;DHT22;11727;52.134;5.052;2022-12-10T14:23:28;0.00;99.90
23116;DHT22;11727;52.134;5.052;2022-12-10T14:26:18;0.00;99.90
23116;DHT22;11727;52.134;5.052;2022-12-10T14:28:50;0.00;99.90
23116;DHT22;11727;52.134;5.052;2022-12-10T14:31:51;0.10;99.90
23116;DHT22;11727;52.134;5.052;2022-12-10T14:34:14;0.10;99.90
23116;DHT22;11727;52.134;5.052;2022-12-10T14:36:49;0.10;99.90
23116;DHT22;11727;52.134;5.052;2022-12-10T14:39:18;0.10;99.90
23116;DHT22;11727;52.134;5.052;2022-12-10T14:41:45;0.10;99.90
23116;DHT22;11727;52.134;5.052;2022-12-10T14:44:15;0.10;99.90
23116;DHT22;11727;52.134;5.052;2022-12-10T14:46:42;0.10;99.90
23116;DHT22;11727;52.134;5.052;2022-12-10T14:49:18;0.10;99.90
23116;DHT22;11727;52.134;5.052;2022-12-10T14:51:44;0.20;99.90
23116;DHT22;11727;52.134;5.052;2022-12-10T14:54:28;0.10;99.90
23116;DHT22;11727;52.134;5.052;2022-12-10T14:56:58;0.20;99.90
23116;DHT22;11727;52.134;5.052;2022-12-10T14:59:37;0.20;99.90
23116;DHT22;11727;52.134;5.052;2022-12-10T15:02:21;0.20;99.90
23116;DHT22;11727;52.134;5.052;2022-12-10T15:04:48;0.20;99.90
23116;DHT22;11727;52.134;5.052;2022-12-10T15:07:17;0.20;99.90
23116;DHT22;11727;52.134;5.052;2022-12-10T15:09:46;0.20;99.90
23116;DHT22;11727;52.134;5.052;2022-12-10T15:12:37;0.20;99.90
23116;DHT22;11727;52.134;5.052;2022-12-10T15:15:16;0.20;99.90
23116;DHT22;11727;52.134;5.052;2022-12-10T15:17:59;0.30;99.90
23116;DHT22;11727;52.134;5.052;2022-12-10T15:20:32;0.20;99.90
23116;DHT22;11727;52.134;5.052;2022-12-10T15:23:25;0.30;99.90
23116;DHT22;11727;52.134;5.052;2022-12-10T15:28:39;0.30;99.90
23116;DHT22;11727;52.134;5.052;2022-12-10T15:34:07;0.40;99.90
23116;DHT22;11727;52.134;5.052;2022-12-10T15:36:42;0.30;99.90
23116;DHT22;11727;52.134;5.052;2022-12-10T15:39:29;0.40;99.90
23116;DHT22;11727;52.134;5.052;2022-12-10T15:47:22;0.40;99.90
23116;DHT22;11727;52.134;5.052;2022-12-10T15:49:51;0.40;99.90
23116;DHT22;11727;52.134;5.052;2022-12-10T15:52:23;0.40;99.90
23116;DHT22;11727;52.134;5.052;2022-12-10T15:54:51;0.40;99.90
23116;DHT22;11727;52.134;5.052;2022-12-10T15:57:20;0.40;99.90
23116;DHT22;11727;52.134;5.052;2022-12-10T15:59:48;0.40;99.90
23116;DHT22;11727;52.134;5.052;2022-12-10T16:05:31;0.40;99.90
23116;DHT22;11727;52.134;5.052;2022-12-10T16:08:21;0.40;99.90
23116;DHT22;11727;52.134;5.052;2022-12-10T16:10:48;0.40;99.90
23116;DHT22;11727;52.134;5.052;2022-12-10T16:15:57;0.40;99.90
23116;DHT22;11727;52.134;5.052;2022-12-10T16:18:24;0.50;99.90
23116;DHT22;11727;52.134;5.052;2022-12-10T16:20:50;0.50;99.90
23116;DHT22;11727;52.134;5.052;2022-12-10T16:23:16;0.50;99.90
23116;DHT22;11727;52.134;5.052;2022-12-10T16:25:42;0.50;99.90
23116;DHT22;11727;52.134;5.052;2022-12-10T16:28:18;0.50;99.90
23116;DHT22;11727;52.134;5.052;2022-12-10T16:30:49;0.60;99.90
23116;DHT22;11727;52.134;5.052;2022-12-10T16:33:16;0.60;99.90
23116;DHT22;11727;52.134;5.052;2022-12-10T16:35:43;0.60;99.90
23116;DHT22;11727;52.134;5.052;2022-12-10T16:38:09;0.60;99.90
23116;DHT22;11727;52.134;5.052;2022-12-10T16:40:35;0.60;99.90
23116;DHT22;11727;52.134;5.052;2022-12-10T16:43:01;0.60;99.90
23116;DHT22;11727;52.134;5.052;2022-12-10T16:45:31;0.60;99.90
23116;DHT22;11727;52.134;5.052;2022-12-10T16:47:57;0.60;99.90
23116;DHT22;11727;52.134;5.052;2022-12-10T16:50:23;0.60;99.90
23116;DHT22;11727;52.134;5.052;2022-12-10T16:52:50;0.60;99.90
23116;DHT22;11727;52.134;5.052;2022-12-10T16:55:19;0.60;99.90
23116;DHT22;11727;52.134;5.052;2022-12-10T16:57:45;0.70;99.90
23116;DHT22;11727;52.134;5.052;2022-12-10T17:00:17;0.70;99.90
23116;DHT22;11727;52.134;5.052;2022-12-10T17:02:44;0.60;99.90
23116;DHT22;11727;52.134;5.052;2022-12-10T17:05:24;0.70;99.90
23116;DHT22;11727;52.134;5.052;2022-12-10T17:07:51;0.70;99.90
23116;DHT22;11727;52.134;5.052;2022-12-10T17:10:17;0.70;99.90
23116;DHT22;11727;52.134;5.052;2022-12-10T17:13:03;0.70;99.90
23116;DHT22;11727;52.134;5.052;2022-12-10T17:15:29;0.80;99.90
23116;DHT22;11727;52.134;5.052;2022-12-10T17:17:55;0.70;99.90
23116;DHT22;11727;52.134;5.052;2022-12-10T17:20:20;0.70;99.90
23116;DHT22;11727;52.134;5.052;2022-12-10T17:22:46;0.70;99.90
23116;DHT22;11727;52.134;5.052;2022-12-10T17:25:12;0.70;99.90
23116;DHT22;11727;52.134;5.052;2022-12-10T17:27:38;0.70;99.90
23116;DHT22;11727;52.134;5.052;2022-12-10T17:30:05;0.70;99.90
23116;DHT22;11727;52.134;5.052;2022-12-10T17:32:30;0.70;99.90
23116;DHT22;11727;52.134;5.052;2022-12-10T17:34:57;0.70;99.90
23116;DHT22;11727;52.134;5.052;2022-12-10T17:37:24;0.70;99.90
23116;DHT22;11727;52.134;5.052;2022-12-10T17:39:50;0.70;99.90
23116;DHT22;11727;52.134;5.052;2022-12-10T17:42:16;0.70;99.90
23116;DHT22;11727;52.134;5.052;2022-12-10T17:44:41;0.80;99.90
23116;DHT22;11727;52.134;5.052;2022-12-10T17:47:20;0.80;99.90
23116;DHT22;11727;52.134;5.052;2022-12-10T17:49:46;0.80;99.90
23116;DHT22;11727;52.134;5.052;2022-12-10T17:52:12;0.80;99.90
23116;DHT22;11727;52.134;5.052;2022-12-10T17:54:37;0.80;99.90
23116;DHT22;11727;52.134;5.052;2022-12-10T17:57:18;0.80;99.90
23116;DHT22;11727;52.134;5.052;2022-12-10T17:59:45;0.80;99.90
23116;DHT22;11727;52.134;5.052;2022-12-10T18:02:11;0.90;99.90
23116;DHT22;11727;52.134;5.052;2022-12-10T18:04:38;0.90;99.90
23116;DHT22;11727;52.134;5.052;2022-12-10T18:07:15;0.90;99.90
23116;DHT22;11727;52.134;5.052;2022-12-10T18:09:41;0.90;99.90